• Join FlightAware (Why Join?)
  • Login
  • US Flag 
04:56AM EDT


 

Airport Tracker/Info


-or-


 

Live Flight TrackerFlight Track Log ✈ N483ER ✈ 01-Aug-2012 ✈ KMLB - KDAB

Flight Track Log - Related Links

Times and Time Zones

All times are in EDT time to prevent confusion due to time zone crossing. See the N483ER flight status page for this flight to view local times or setup timezone preferences in your user account.

Time Position Orientation Groundspeed Altitude Reporting Facility
EDT Latitude Longitude Course Direction KTS MPH feet Rate Location/Type
12:02PM 28.1167 -80.8000 360° North 113 130 3,200  Level Orlando TRACON
12:03PM 28.1500 -80.8000 360° North 94 108 4,000 420 Climbing Orlando TRACON
12:04PM 28.1833 -80.8000 319° Northwest 90 104 4,400 420 Climbing Orlando TRACON
12:05PM 28.2000 -80.8167 360° North 88 101 4,900 300 Climbing Orlando TRACON
12:06PM 28.2333 -80.8167 360° North 110 127 5,100  Climbing Orlando TRACON
12:07PM 28.2667 -80.8167 336° Northwest 114 131 5,000 -60 Descending Orlando TRACON
12:08PM 28.3000 -80.8333 24° Northeast 116 133 5,000  Level Orlando TRACON
12:09PM 28.3333 -80.8167 41° Northeast 124 143 5,000  Level Orlando TRACON
12:10PM 28.3500 -80.8000 360° North 122 140 5,000  Level Orlando TRACON
12:11PM 28.4000 -80.8000 336° Northwest 114 131 5,000  Level Orlando TRACON
12:13PM 28.4333 -80.8167 360° North 114 131 5,000 -60 Level Orlando TRACON
12:14PM 28.4500 -80.8167 336° Northwest 114 131 4,900 -60 Descending Orlando TRACON
12:14PM 28.4833 -80.8333 336° Northwest 114 131 4,900 -60 Level Orlando TRACON
12:16PM 28.5167 -80.8500 360° North 113 130 4,800  Descending Orlando TRACON
12:16PM 28.5333 -80.8500 360° North 109 125 5,000 120 Climbing Orlando TRACON
12:17PM 28.5667 -80.8500 336° Northwest 109 125 5,100  Climbing Orlando TRACON
12:18PM 28.6000 -80.8667 360° North 127 146 5,000 -60 Descending Orlando TRACON
12:19PM 28.6333 -80.8667 336° Northwest 123 142 5,000 -120 Level Orlando TRACON
12:20PM 28.6667 -80.8833 360° North 126 145 4,800  Descending Orlando TRACON
12:21PM 28.7000 -80.8833 336° Northwest 111 128 5,000 60 Climbing Orlando TRACON
12:22PM 28.7333 -80.9000 336° Northwest 113 130 5,000  Level Orlando TRACON
12:23PM 28.7667 -80.9167 331° Northwest 119 137 5,100  Climbing Orlando TRACON
12:26PM 28.8219 -80.9517 353° North 115 132 5,100  Level Jacksonville Center
12:27PM 28.8533 -80.9558 North 120 138 5,100 -60 Level Jacksonville Center
12:28PM 28.8867 -80.9553 North 120 138 5,000 -120 Descending Jacksonville Center
12:28PM 28.9158 -80.9547 North 122 140 4,900 -60 Descending Jacksonville Center
12:29PM 28.9492 -80.9492 348° North 119 137 4,900 -240 Level Jacksonville Center
12:31PM 28.9869 -80.9581 336° Northwest 122 140 4,400 -780 Descending Jacksonville Center
12:32PM 29.0183 -80.9739 334° Northwest 122 140 3,300 -900 Descending Jacksonville Center
12:33PM 29.0478 -80.9900 336° Northwest 118 136 2,700 -600 Descending Jacksonville Center
12:34PM 29.0753 -81.0039 339° North 109 125 2,200 -600 Descending Jacksonville Center
12:35PM 29.1067 -81.0175 332° Northwest 106 122 1,500 -600 Descending Jacksonville Center
12:36PM 29.1297 -81.0314 339° North 101 116 1,000 -480 Descending Jacksonville Center
12:37PM 29.1550 -81.0428 357° North 99 114 600 -300 Descending Jacksonville Center
12:38PM 29.1822 -81.0444 259° West 86 99 400 -180 Descending Jacksonville Center
12:46PM 29.1384 -81.3018 83° East  Level Estimated
12:47PM 29.1667 -81.0500 83° East  Level FlightAware Approximate